This is the latest recevied weather packets stored in our database for station/object OE5OVL-13. If no packets are shown the sender has not sent any weather packets the latest 1 day(s).
| Time | Temp. | Humidity | Pressure | Rain* | Wind** | Luminosity | Snow |
|---|---|---|---|---|---|---|---|
| 1778109091 | 15.56° C | 69% | 723.5 hPa | 0 mm | - | - | - |
| 1778100885 | 17.22° C | 72% | 725.9 hPa | 0 mm | - | - | - |
| 1778095415 | 20° C | 49% | 729 hPa | 0 mm | - | - | - |
| 1778094503 | 21.11° C | 46% | 729.9 hPa | 0 mm | - | - | - |
| 1778091768 | 23.33° C | 37% | 732.6 hPa | 0 mm | - | - | - |
| 1778090856 | 23.89° C | 34% | 733.6 hPa | 0 mm | - | - | - |
| 1778088121 | 26.67° C | 29% | 736.7 hPa | 0 mm | - | - | - |
| 1778086297 | 26.11° C | 32% | 736.2 hPa | 0 mm | - | - | - |
| 1778084474 | 26.67° C | 32% | 736.7 hPa | 0 mm | - | - | - |
| 1778080827 | 26.67° C | 32% | 736.4 hPa | 0 mm | - | - | - |
| 1778079916 | 27.22° C | 31% | 737.2 hPa | 0 mm | - | - | - |
| 1778077180 | 31.11° C | 27% | 741.9 hPa | 0 mm | - | - | - |
| 1778073533 | 32.78° C | 28% | 744 hPa | 0 mm | - | - | - |
| 1778072621 | 32.22° C | 30% | 743.1 hPa | 0 mm | - | - | - |
| 1778069886 | 30° C | 32% | 740.6 hPa | 0 mm | - | - | - |
| 1778068974 | 28.89° C | 36% | 739.4 hPa | 0 mm | - | - | - |
| 1778066239 | 26.67° C | 41% | 736.5 hPa | 0 mm | - | - | - |
| 1778062592 | 24.44° C | 43% | 733.9 hPa | 0 mm | - | - | - |
| 1778060768 | 23.89° C | 43% | 733.6 hPa | 0 mm | - | - | - |
| 1778059857 | 23.89° C | 44% | 733.2 hPa | 0 mm | - | - | - |
| 1778058945 | 23.33° C | 46% | 732.8 hPa | 0 mm | - | - | - |
| 1778055298 | 21.11° C | 55% | 730 hPa | 0 mm | - | - | - |
| 1778054386 | 20.56° C | 57% | 729.4 hPa | 0 mm | - | - | - |
| 1778051651 | 19.44° C | 67% | 728 hPa | 0 mm | - | - | - |
| 1778050739 | 19.44° C | 69% | 728 hPa | 0 mm | - | - | - |
* Rain latest hour (hover to see other rain measurements)
** Current wind speed in m/s (hover to see current wind gust speed)